Página principal
METAR-TAF:

METAR-TAF

Aeroportos :

Terceira, Açores, Portugal

Base Aérea das Lajes

latitude: 38-46N, longitude: 027-06W, altura: 52 m

Observação actual do tempo

O boletim foi feito há 34 minutos, às 08:00 UTC
Vento 8 kt de oes-noroeste
Temperatura 19°C
Humidade 100%
Pressão 1019 hPa
Visibilidade: 3500 m
Poucas nuvensa uma altura de 1000 ft
Nuvens fragmentadasa uma altura de 2000 ft
chuva fraca

METAR: LPLA 260800Z 29008KT 9999 3500W -RA FEW010 BKN020 19/19 Q1019

Hora: 08:34 (08:34 UTC)


TAF: em falta

Observações e previsões do tempo de mais de 4000 aeroportos (mensagens METAR e TAF).

As estações disponíveis são os pontos amarelos e vermelhos sobre o mapa.

Mova o rato sobre o mapa para ver o nome da estação.

Depois clique no ponto para visualizar as observações e previsões meteorológicas.

Para alterar o mapa : clique nos botões verdes com uma cruz preta para aumentar o zoom; no botão verde com uma pitada de zoom; ou nas setas verdes para mapas adjacentes.


METAR-TAF: